Time;durP1;ratioP1;P1;durP2;ratioP2;P2;SDS_P1;SDS_P2;PMS_P1;PMS_P2;Temp;Humidity;BMP_temperature;BMP_pressure;BME280_temperature;BME280_humidity;BME280_pressure;Samples;Min_cycle;Max_cycle;Signal;HPM_P1;HPM_P2
2022/12/30 00:00:43;;;;;;;;;;;6.50;99.90;;;;;;4979700;28;19933;-70
2022/12/30 00:03:09;;;;;;;;;;;6.40;99.90;;;;;;4982658;28;19922;-70
2022/12/30 00:05:34;;;;;;;;;;;6.40;99.90;;;;;;4982165;28;19921;-69
2022/12/30 00:08:00;;;;;;;;;;;6.00;99.90;;;;;;4982610;28;20012;-69
2022/12/30 00:10:25;;;;;;;;;;;6.30;99.90;;;;;;4983582;28;19975;-69
2022/12/30 00:34:55;;;;;;;;;;;6.10;99.90;;;;;;4995006;28;20572;-70
2022/12/30 00:37:20;;;;;;;;;;;6.10;99.90;;;;;;4984407;28;19929;-69
2022/12/30 00:39:46;;;;;;;;;;;6.10;99.90;;;;;;4978866;28;20011;-70
2022/12/30 00:44:56;;;;;;;;;;;6.30;99.90;;;;;;4981277;28;19922;-70
2022/12/30 00:47:21;;;;;;;;;;;6.40;99.90;;;;;;4983334;28;20230;-70
2022/12/30 00:58:00;;;;;;;;;;;6.90;99.90;;;;;;4984203;28;20012;-70
2022/12/30 01:00:25;;;;;;;;;;;6.30;99.90;;;;;;4982280;28;20024;-69
2022/12/30 01:02:51;;;;;;;;;;;6.30;99.90;;;;;;4980964;28;20020;-70
2022/12/30 01:05:16;;;;;;;;;;;6.20;99.90;;;;;;4983321;28;19928;-70
2022/12/30 01:07:42;;;;;;;;;;;6.20;99.90;;;;;;4980247;28;20420;-70
2022/12/30 01:10:09;;;;;;;;;;;6.30;99.90;;;;;;4984006;28;19922;-70
2022/12/30 01:12:34;;;;;;;;;;;6.20;99.90;;;;;;4977453;28;19922;-70
2022/12/30 01:15:00;;;;;;;;;;;6.30;99.90;;;;;;4983053;28;19991;-70
2022/12/30 01:17:30;;;;;;;;;;;6.20;99.90;;;;;;4981075;28;20451;-70
2022/12/30 01:19:55;;;;;;;;;;;6.30;99.90;;;;;;4982210;28;19968;-70
2022/12/30 01:22:21;;;;;;;;;;;6.30;99.90;;;;;;4981374;28;19922;-70
2022/12/30 01:24:47;;;;;;;;;;;6.00;99.90;;;;;;4980776;28;19962;-70
2022/12/30 01:27:15;;;;;;;;;;;6.10;99.90;;;;;;4982407;28;19921;-70
2022/12/30 01:29:42;;;;;;;;;;;6.00;99.90;;;;;;4981247;28;19929;-70
2022/12/30 01:32:13;;;;;;;;;;;5.90;99.90;;;;;;4983757;28;19917;-70
2022/12/30 01:34:39;;;;;;;;;;;5.90;99.90;;;;;;4980202;28;19929;-70
2022/12/30 01:37:04;;;;;;;;;;;6.00;99.90;;;;;;4980969;28;19922;-69
2022/12/30 01:39:30;;;;;;;;;;;5.90;99.90;;;;;;4983928;28;20006;-70
2022/12/30 01:41:56;;;;;;;;;;;5.90;99.90;;;;;;4983900;28;19926;-70
2022/12/30 01:44:40;;;;;;;;;;;6.10;99.90;;;;;;4979512;28;19925;-70
2022/12/30 01:47:06;;;;;;;;;;;5.90;99.90;;;;;;4982117;28;19928;-70
2022/12/30 01:49:34;;;;;;;;;;;6.00;99.90;;;;;;4980650;28;19921;-70
2022/12/30 01:52:00;;;;;;;;;;;5.80;99.90;;;;;;4975138;28;19928;-70
2022/12/30 01:54:25;;;;;;;;;;;5.70;99.90;;;;;;4982058;28;20016;-69
2022/12/30 01:56:51;;;;;;;;;;;5.50;99.90;;;;;;4978731;28;19937;-70
2022/12/30 01:59:18;;;;;;;;;;;5.70;99.90;;;;;;4979507;28;19929;-70
2022/12/30 02:01:44;;;;;;;;;;;5.30;99.90;;;;;;4980366;28;19922;-69
2022/12/30 02:04:13;;;;;;;;;;;6.10;99.90;;;;;;4980744;28;19922;-69
2022/12/30 02:06:57;;;;;;;;;;;5.20;99.90;;;;;;4983899;28;20380;-69
2022/12/30 02:09:24;;;;;;;;;;;5.10;99.90;;;;;;4983631;28;19925;-69
2022/12/30 02:11:52;;;;;;;;;;;5.30;99.90;;;;;;4976312;28;19929;-69
2022/12/30 02:14:18;;;;;;;;;;;5.60;99.90;;;;;;4979873;28;20356;-69
2022/12/30 02:16:56;;;;;;;;;;;4.80;99.90;;;;;;4980467;28;20016;-70
2022/12/30 02:19:54;;;;;;;;;;;4.90;99.90;;;;;;4984663;28;19921;-70
2022/12/30 02:22:28;;;;;;;;;;;4.80;99.90;;;;;;4940714;28;20388;-70
2022/12/30 02:24:57;;;;;;;;;;;4.80;99.90;;;;;;4977853;28;19922;-70
2022/12/30 02:27:28;;;;;;;;;;;4.80;99.90;;;;;;4979639;28;19949;-70
2022/12/30 02:30:02;;;;;;;;;;;4.80;99.90;;;;;;4980738;28;19922;-69
2022/12/30 02:33:06;;;;;;;;;;;4.80;99.90;;;;;;4980370;28;19926;-70
2022/12/30 02:35:52;;;;;;;;;;;4.70;99.90;;;;;;4922004;29;19929;-70
2022/12/30 02:38:36;;;;;;;;;;;4.70;99.90;;;;;;4901871;29;20078;-70
2022/12/30 02:46:45;;;;;;;;;;;4.90;99.90;;;;;;4998736;28;19925;-70
2022/12/30 02:49:12;;;;;;;;;;;4.80;99.90;;;;;;4999616;28;19922;-70
2022/12/30 02:54:24;;;;;;;;;;;5.20;99.90;;;;;;4980536;28;19929;-70
2022/12/30 02:56:51;;;;;;;;;;;4.70;99.90;;;;;;4980862;28;19922;-69
2022/12/30 03:05:14;;;;;;;;;;;4.80;99.90;;;;;;4977234;28;19926;-70
2022/12/30 03:07:46;;;;;;;;;;;4.80;99.90;;;;;;4983646;28;19930;-70
2022/12/30 03:13:11;;;;;;;;;;;4.90;99.90;;;;;;4982567;28;19926;-69
2022/12/30 03:15:44;;;;;;;;;;;4.90;99.90;;;;;;4984310;28;20373;-70
2022/12/30 03:18:10;;;;;;;;;;;4.90;99.90;;;;;;4985874;28;20369;-69
2022/12/30 03:20:37;;;;;;;;;;;5.10;99.90;;;;;;4983852;28;19925;-70
2022/12/30 03:28:33;;;;;;;;;;;4.90;99.90;;;;;;4984090;28;19929;-70
2022/12/30 03:31:01;;;;;;;;;;;4.90;99.90;;;;;;4982608;28;19926;-70
2022/12/30 03:33:27;;;;;;;;;;;5.00;99.90;;;;;;4983110;28;19971;-70
2022/12/30 03:35:55;;;;;;;;;;;5.00;99.90;;;;;;4983873;28;19936;-70
2022/12/30 03:38:27;;;;;;;;;;;5.00;99.90;;;;;;4983608;28;20013;-70
2022/12/30 03:40:53;;;;;;;;;;;5.00;99.90;;;;;;4982756;28;20020;-70
2022/12/30 03:43:19;;;;;;;;;;;4.80;99.90;;;;;;4984926;28;20008;-70
2022/12/30 03:45:45;;;;;;;;;;;5.30;99.90;;;;;;4981071;28;19929;-69
2022/12/30 03:48:11;;;;;;;;;;;4.70;99.90;;;;;;4985073;28;20294;-69
2022/12/30 03:50:39;;;;;;;;;;;4.80;99.90;;;;;;4979735;28;20024;-70
2022/12/30 03:53:07;;;;;;;;;;;4.70;99.90;;;;;;4985036;28;19922;-70
2022/12/30 03:55:33;;;;;;;;;;;4.70;99.90;;;;;;4982399;28;19987;-69
2022/12/30 03:57:58;;;;;;;;;;;4.60;99.90;;;;;;4984446;28;20381;-69
2022/12/30 04:00:24;;;;;;;;;;;4.80;99.90;;;;;;4980197;28;20024;-70
2022/12/30 04:02:49;;;;;;;;;;;4.50;99.90;;;;;;4984412;28;19926;-69
2022/12/30 04:05:15;;;;;;;;;;;4.50;99.90;;;;;;4982858;28;19921;-70
2022/12/30 04:07:40;;;;;;;;;;;4.90;99.90;;;;;;4982443;28;20428;-70
2022/12/30 04:10:06;;;;;;;;;;;4.70;99.90;;;;;;4982705;28;20020;-70
2022/12/30 04:12:32;;;;;;;;;;;4.70;99.90;;;;;;4984425;28;20424;-69
2022/12/30 04:14:57;;;;;;;;;;;5.20;99.90;;;;;;4980388;28;19922;-69
2022/12/30 04:17:23;;;;;;;;;;;5.10;99.90;;;;;;4982029;28;19924;-70
2022/12/30 04:19:48;;;;;;;;;;;4.80;99.90;;;;;;4981601;28;19922;-69
2022/12/30 04:22:14;;;;;;;;;;;4.80;99.90;;;;;;4983503;28;19922;-69
2022/12/30 04:24:39;;;;;;;;;;;4.90;99.90;;;;;;4982667;28;20270;-69
2022/12/30 04:27:05;;;;;;;;;;;4.90;99.90;;;;;;4983655;28;20285;-69
2022/12/30 04:29:30;;;;;;;;;;;5.00;99.90;;;;;;4980481;28;20393;-69
2022/12/30 04:31:56;;;;;;;;;;;4.90;99.90;;;;;;4984533;28;19925;-71
2022/12/30 04:34:21;;;;;;;;;;;5.00;99.90;;;;;;4982369;28;19922;-69
2022/12/30 04:36:47;;;;;;;;;;;5.10;99.90;;;;;;4982318;28;20302;-70
2022/12/30 04:39:12;;;;;;;;;;;5.10;99.90;;;;;;4984069;28;20297;-69
2022/12/30 04:41:38;;;;;;;;;;;5.10;99.90;;;;;;4979547;28;20289;-69
2022/12/30 04:44:04;;;;;;;;;;;5.10;99.90;;;;;;4985011;28;20004;-69
2022/12/30 04:46:30;;;;;;;;;;;5.00;99.90;;;;;;4980848;28;20376;-70
2022/12/30 04:48:55;;;;;;;;;;;5.60;99.90;;;;;;4984086;28;19953;-69
2022/12/30 04:51:24;;;;;;;;;;;5.60;99.90;;;;;;4979697;28;20452;-70
2022/12/30 04:53:50;;;;;;;;;;;5.20;99.90;;;;;;4981990;28;19922;-70
2022/12/30 04:56:15;;;;;;;;;;;5.30;99.90;;;;;;4980208;28;19921;-69
2022/12/30 04:58:41;;;;;;;;;;;6.00;99.90;;;;;;4980149;28;20270;-69
2022/12/30 05:01:07;;;;;;;;;;;5.30;99.90;;;;;;4982254;28;19929;-69
2022/12/30 05:03:32;;;;;;;;;;;5.40;99.90;;;;;;4982737;28;19921;-69
2022/12/30 05:05:57;;;;;;;;;;;6.00;99.90;;;;;;4978143;28;19980;-70
2022/12/30 05:08:23;;;;;;;;;;;5.90;99.90;;;;;;4982528;28;19971;-70
2022/12/30 05:10:49;;;;;;;;;;;5.60;99.90;;;;;;4981876;28;19930;-70
2022/12/30 05:13:14;;;;;;;;;;;5.60;99.90;;;;;;4983084;28;20266;-70
2022/12/30 05:15:40;;;;;;;;;;;5.70;99.90;;;;;;4980785;28;20004;-70
2022/12/30 05:18:09;;;;;;;;;;;5.80;99.90;;;;;;4981403;28;20314;-70
2022/12/30 05:20:34;;;;;;;;;;;5.80;99.90;;;;;;4983681;28;19928;-70
2022/12/30 05:23:00;;;;;;;;;;;5.80;99.90;;;;;;4980746;28;20091;-70
2022/12/30 05:28:10;;;;;;;;;;;5.70;99.90;;;;;;4979357;28;19922;-70
2022/12/30 05:30:35;;;;;;;;;;;5.80;99.90;;;;;;4982733;28;20017;-70
2022/12/30 05:33:01;;;;;;;;;;;5.90;99.90;;;;;;4980216;28;19957;-70
2022/12/30 05:35:26;;;;;;;;;;;5.90;99.90;;;;;;4978932;28;19918;-70
2022/12/30 05:37:52;;;;;;;;;;;6.40;99.90;;;;;;4977120;28;20036;-70
2022/12/30 05:40:17;;;;;;;;;;;5.90;99.90;;;;;;4982646;28;20369;-70
2022/12/30 05:42:43;;;;;;;;;;;5.90;99.90;;;;;;4981246;28;20293;-70
2022/12/30 05:45:08;;;;;;;;;;;6.20;99.90;;;;;;4982685;28;19945;-70
2022/12/30 05:47:34;;;;;;;;;;;5.90;99.90;;;;;;4981057;28;20729;-70
2022/12/30 05:49:59;;;;;;;;;;;6.60;99.90;;;;;;4981547;28;20549;-70
2022/12/30 05:52:27;;;;;;;;;;;5.90;99.90;;;;;;4981222;28;20003;-70
2022/12/30 05:54:53;;;;;;;;;;;5.80;99.90;;;;;;4983097;28;19932;-70
2022/12/30 05:57:18;;;;;;;;;;;5.90;99.90;;;;;;4983230;28;19922;-70
2022/12/30 05:59:44;;;;;;;;;;;5.90;99.90;;;;;;4984566;28;19938;-70
2022/12/30 06:02:09;;;;;;;;;;;5.90;99.90;;;;;;4986035;28;19925;-70
2022/12/30 06:04:35;;;;;;;;;;;6.70;99.90;;;;;;4983556;28;19933;-70
2022/12/30 06:07:00;;;;;;;;;;;5.80;99.90;;;;;;4984075;28;19922;-69
2022/12/30 06:09:26;;;;;;;;;;;5.90;99.90;;;;;;4986993;28;19990;-70
2022/12/30 06:11:51;;;;;;;;;;;7.00;99.90;;;;;;4983531;28;19922;-70
2022/12/30 06:14:17;;;;;;;;;;;5.90;99.90;;;;;;4986710;28;20033;-71
2022/12/30 06:16:43;;;;;;;;;;;5.90;99.90;;;;;;4983301;28;20005;-70
2022/12/30 06:19:08;;;;;;;;;;;6.40;99.90;;;;;;4986725;28;19976;-69
2022/12/30 06:21:34;;;;;;;;;;;6.00;99.90;;;;;;4985156;28;19922;-69
2022/12/30 06:24:00;;;;;;;;;;;6.00;99.90;;;;;;4986170;28;19922;-70
2022/12/30 06:26:25;;;;;;;;;;;5.90;99.90;;;;;;4987199;28;20369;-70
2022/12/30 06:28:51;;;;;;;;;;;5.80;99.90;;;;;;4985779;28;19933;-70
2022/12/30 06:31:16;;;;;;;;;;;5.80;99.90;;;;;;4985804;28;19929;-70
2022/12/30 06:33:42;;;;;;;;;;;6.30;99.90;;;;;;4983437;28;19949;-69
2022/12/30 06:36:08;;;;;;;;;;;6.10;99.90;;;;;;4987048;28;19922;-70
2022/12/30 06:38:33;;;;;;;;;;;5.70;99.90;;;;;;4983297;28;19925;-69
2022/12/30 06:40:59;;;;;;;;;;;5.60;99.90;;;;;;4985219;28;19929;-70
2022/12/30 06:43:24;;;;;;;;;;;5.60;99.90;;;;;;4985584;28;19922;-70
2022/12/30 06:45:50;;;;;;;;;;;5.50;99.90;;;;;;4983136;28;19930;-70
2022/12/30 06:48:16;;;;;;;;;;;5.40;99.90;;;;;;4986241;28;20274;-70
2022/12/30 06:50:41;;;;;;;;;;;5.50;99.90;;;;;;4983550;28;20459;-70
2022/12/30 06:53:07;;;;;;;;;;;5.40;99.90;;;;;;4984381;28;19932;-69
2022/12/30 06:55:32;;;;;;;;;;;5.30;99.90;;;;;;4981624;28;19926;-69
2022/12/30 06:57:58;;;;;;;;;;;5.40;99.90;;;;;;4985325;28;19997;-69
2022/12/30 07:00:24;;;;;;;;;;;5.50;99.90;;;;;;4983434;28;20289;-69
2022/12/30 07:02:50;;;;;;;;;;;5.40;99.90;;;;;;4984374;28;19977;-69
2022/12/30 07:05:16;;;;;;;;;;;5.40;99.90;;;;;;4985515;28;19961;-69
2022/12/30 07:07:41;;;;;;;;;;;5.40;99.90;;;;;;4981919;28;20012;-69
2022/12/30 07:10:07;;;;;;;;;;;5.50;99.90;;;;;;4986300;28;19929;-69
2022/12/30 07:12:32;;;;;;;;;;;5.60;99.90;;;;;;4983360;28;19926;-69
2022/12/30 07:14:58;;;;;;;;;;;5.50;99.90;;;;;;4985476;28;19937;-69
2022/12/30 07:17:24;;;;;;;;;;;5.70;99.90;;;;;;4980883;28;19928;-69
2022/12/30 07:19:49;;;;;;;;;;;5.70;99.90;;;;;;4979533;28;19922;-69
2022/12/30 07:22:16;;;;;;;;;;;5.50;99.90;;;;;;4977044;28;19929;-70
2022/12/30 07:24:41;;;;;;;;;;;5.50;99.90;;;;;;4982335;28;19922;-70
2022/12/30 07:27:09;;;;;;;;;;;5.50;99.90;;;;;;4985459;28;19929;-70
2022/12/30 07:29:34;;;;;;;;;;;5.40;99.90;;;;;;4982788;28;20330;-70
2022/12/30 07:32:00;;;;;;;;;;;5.40;99.90;;;;;;4984328;28;19922;-70
2022/12/30 07:34:25;;;;;;;;;;;6.10;99.90;;;;;;4984564;28;19922;-69
2022/12/30 07:36:51;;;;;;;;;;;5.20;99.90;;;;;;4985105;28;19926;-69
2022/12/30 07:39:17;;;;;;;;;;;5.20;99.90;;;;;;4982739;28;19976;-69
2022/12/30 07:41:42;;;;;;;;;;;5.10;99.90;;;;;;4980908;28;20016;-69
2022/12/30 07:44:08;;;;;;;;;;;5.10;99.90;;;;;;4982988;28;20077;-70
2022/12/30 07:46:33;;;;;;;;;;;5.10;99.90;;;;;;4981681;28;19934;-70
2022/12/30 07:48:59;;;;;;;;;;;5.10;99.90;;;;;;4983852;28;20392;-73
2022/12/30 07:51:24;;;;;;;;;;;5.50;99.90;;;;;;4983840;28;20072;-70
2022/12/30 07:53:50;;;;;;;;;;;5.30;99.90;;;;;;4986216;28;19976;-70
2022/12/30 07:56:15;;;;;;;;;;;4.80;99.90;;;;;;4979479;28;19972;-70
2022/12/30 07:58:41;;;;;;;;;;;4.90;99.90;;;;;;4984249;28;19922;-71
2022/12/30 08:01:13;;;;;;;;;;;5.20;99.90;;;;;;4983759;28;19918;-71
2022/12/30 08:03:40;;;;;;;;;;;4.90;99.90;;;;;;4983296;28;19961;-70
2022/12/30 08:06:12;;;;;;;;;;;5.10;99.90;;;;;;4980312;28;20008;-71
2022/12/30 08:08:38;;;;;;;;;;;5.10;99.90;;;;;;4982832;28;20397;-70
2022/12/30 08:11:04;;;;;;;;;;;5.00;99.90;;;;;;4983030;28;19929;-71
2022/12/30 08:13:31;;;;;;;;;;;4.90;99.90;;;;;;4983830;28;19929;-70
2022/12/30 08:15:56;;;;;;;;;;;5.10;99.90;;;;;;4981813;28;19985;-70
2022/12/30 08:18:26;;;;;;;;;;;5.10;99.90;;;;;;4974407;28;19953;-70
2022/12/30 08:20:51;;;;;;;;;;;5.20;99.90;;;;;;4979767;28;19932;-71
2022/12/30 08:23:17;;;;;;;;;;;5.10;99.90;;;;;;4978544;28;20305;-72
2022/12/30 08:25:42;;;;;;;;;;;5.20;99.90;;;;;;4976594;28;19926;-71
2022/12/30 08:28:08;;;;;;;;;;;5.70;99.90;;;;;;4982069;28;20002;-70
2022/12/30 08:30:33;;;;;;;;;;;5.10;99.90;;;;;;4982870;28;19926;-72
2022/12/30 08:32:59;;;;;;;;;;;5.10;99.90;;;;;;4980257;28;19925;-70
2022/12/30 08:35:24;;;;;;;;;;;5.70;99.90;;;;;;4984691;28;19976;-72
2022/12/30 08:37:50;;;;;;;;;;;5.90;99.90;;;;;;4977143;28;20012;-70
2022/12/30 08:40:15;;;;;;;;;;;5.40;99.90;;;;;;4976462;28;19918;-71
2022/12/30 08:42:41;;;;;;;;;;;5.30;99.90;;;;;;4984093;28;20033;-70
2022/12/30 08:45:07;;;;;;;;;;;5.30;99.90;;;;;;4983077;28;19922;-72
2022/12/30 08:47:37;;;;;;;;;;;5.40;99.90;;;;;;4981502;28;19976;-71
2022/12/30 08:50:02;;;;;;;;;;;6.30;99.90;;;;;;4982419;28;19922;-72
2022/12/30 08:52:28;;;;;;;;;;;5.40;99.90;;;;;;4982480;28;19922;-71
2022/12/30 08:54:54;;;;;;;;;;;5.40;99.90;;;;;;4978152;28;19961;-74
2022/12/30 08:57:20;;;;;;;;;;;5.30;99.90;;;;;;4981813;28;20444;-71
2022/12/30 08:59:45;;;;;;;;;;;5.50;99.90;;;;;;4981551;28;19942;-72
2022/12/30 09:02:11;;;;;;;;;;;5.40;99.90;;;;;;4982045;28;19977;-69
2022/12/30 09:04:37;;;;;;;;;;;5.50;99.90;;;;;;4981235;28;20001;-70
2022/12/30 09:07:02;;;;;;;;;;;6.10;99.90;;;;;;4982989;28;19928;-71
2022/12/30 09:09:29;;;;;;;;;;;5.50;99.90;;;;;;4977767;28;19925;-69
2022/12/30 09:11:55;;;;;;;;;;;5.50;99.90;;;;;;4980880;28;19922;-70
2022/12/30 09:14:22;;;;;;;;;;;6.10;99.90;;;;;;4987274;28;20421;-69
2022/12/30 09:16:50;;;;;;;;;;;5.60;99.90;;;;;;4980793;28;19925;-69
2022/12/30 09:19:16;;;;;;;;;;;5.60;99.90;;;;;;4979999;28;20004;-69
2022/12/30 09:21:42;;;;;;;;;;;5.80;99.90;;;;;;4978663;28;19930;-69
2022/12/30 09:24:09;;;;;;;;;;;5.60;99.90;;;;;;4980807;28;19928;-70
2022/12/30 09:26:34;;;;;;;;;;;6.20;99.90;;;;;;4978193;28;20420;-70
2022/12/30 09:29:00;;;;;;;;;;;5.60;99.90;;;;;;4974206;28;20256;-70
2022/12/30 09:31:26;;;;;;;;;;;5.50;99.90;;;;;;4981044;28;19925;-70
2022/12/30 09:33:51;;;;;;;;;;;5.60;99.90;;;;;;4981678;28;19973;-69
2022/12/30 09:36:18;;;;;;;;;;;5.70;99.90;;;;;;4983154;28;20323;-69
2022/12/30 09:38:46;;;;;;;;;;;5.70;99.90;;;;;;4979960;28;20404;-69
2022/12/30 09:43:15;;;;;;;;;;;5.70;99.90;;;;;;4977324;28;19922;-69
2022/12/30 09:44:28;;;;;;;;;;;5.80;99.90;;;;;;4976656;28;19922;-69
2022/12/30 09:46:57;;;;;;;;;;;5.80;99.90;;;;;;4978919;28;19928;-68
2022/12/30 09:49:32;;;;;;;;;;;5.80;99.90;;;;;;4980794;28;19926;-69
2022/12/30 09:52:03;;;;;;;;;;;6.00;99.90;;;;;;4980400;28;20428;-69
2022/12/30 09:54:29;;;;;;;;;;;6.10;99.90;;;;;;4981825;28;20363;-70
2022/12/30 09:57:30;;;;;;;;;;;5.90;99.90;;;;;;4978845;28;20307;-70
2022/12/30 09:59:43;;;;;;;;;;;6.20;99.90;;;;;;4979362;28;19926;-70
2022/12/30 10:02:22;;;;;;;;;;;6.10;99.90;;;;;;4982334;28;20024;-70
2022/12/30 10:04:48;;;;;;;;;;;6.10;99.90;;;;;;4977517;28;19981;-70
2022/12/30 10:07:32;;;;;;;;;;;6.90;99.90;;;;;;4983056;28;19960;-70
2022/12/30 10:10:02;;;;;;;;;;;6.30;99.90;;;;;;4982944;28;20069;-70
2022/12/30 10:12:31;;;;;;;;;;;6.30;99.90;;;;;;4978711;28;19922;-70
2022/12/30 10:14:59;;;;;;;;;;;6.20;99.90;;;;;;4981716;28;19922;-70
2022/12/30 10:17:31;;;;;;;;;;;6.40;99.90;;;;;;4980186;28;20013;-70
2022/12/30 10:20:14;;;;;;;;;;;6.50;99.90;;;;;;4982390;28;19930;-70
2022/12/30 10:22:47;;;;;;;;;;;6.60;99.90;;;;;;4977999;28;19922;-70
2022/12/30 10:25:13;;;;;;;;;;;6.90;99.90;;;;;;4982537;28;19977;-70
2022/12/30 10:27:45;;;;;;;;;;;7.10;99.90;;;;;;4980073;28;19973;-70
2022/12/30 10:30:15;;;;;;;;;;;7.10;99.90;;;;;;4979549;28;19929;-70
2022/12/30 10:32:44;;;;;;;;;;;7.10;99.90;;;;;;4981929;28;19921;-70
2022/12/30 10:35:14;;;;;;;;;;;7.20;99.90;;;;;;4981027;28;19922;-69
2022/12/30 10:37:40;;;;;;;;;;;7.10;99.90;;;;;;4981789;28;20000;-69
2022/12/30 10:40:09;;;;;;;;;;;7.90;99.90;;;;;;4983373;28;20025;-69
2022/12/30 10:42:44;;;;;;;;;;;7.00;99.90;;;;;;4982616;28;19929;-70
2022/12/30 10:45:33;;;;;;;;;;;7.10;99.90;;;;;;4986419;28;19922;-69
2022/12/30 10:48:17;;;;;;;;;;;7.10;99.90;;;;;;4986957;28;19926;-70
2022/12/30 10:50:46;;;;;;;;;;;7.10;99.90;;;;;;4980664;28;19925;-69
2022/12/30 10:53:22;;;;;;;;;;;7.20;99.90;;;;;;4983159;28;19970;-69
2022/12/30 10:55:48;;;;;;;;;;;7.20;99.90;;;;;;4984772;28;19968;-70
2022/12/30 10:58:33;;;;;;;;;;;7.20;99.90;;;;;;4983776;28;19993;-71
2022/12/30 11:01:00;;;;;;;;;;;7.10;99.90;;;;;;4977880;28;19972;-70
2022/12/30 11:03:32;;;;;;;;;;;7.50;99.90;;;;;;4983607;28;19922;-70
2022/12/30 11:05:58;;;;;;;;;;;7.00;99.90;;;;;;4984941;28;20277;-70
2022/12/30 11:08:25;;;;;;;;;;;7.10;99.90;;;;;;4982063;28;19968;-69
2022/12/30 11:10:58;;;;;;;;;;;7.00;99.90;;;;;;4986497;28;20016;-69
2022/12/30 11:16:08;;;;;;;;;;;7.00;99.90;;;;;;4982174;28;19918;-69
2022/12/30 11:18:35;;;;;;;;;;;7.00;99.90;;;;;;4984617;28;19926;-70
2022/12/30 11:21:00;;;;;;;;;;;7.10;99.90;;;;;;4984942;28;19917;-70
2022/12/30 11:23:26;;;;;;;;;;;7.10;99.90;;;;;;4982698;28;20392;-70
2022/12/30 11:25:51;;;;;;;;;;;7.00;99.90;;;;;;4985199;28;20301;-70
2022/12/30 11:28:22;;;;;;;;;;;7.00;99.90;;;;;;4982874;28;19929;-70
2022/12/30 11:30:50;;;;;;;;;;;7.00;99.90;;;;;;4981291;28;19926;-69
2022/12/30 11:33:18;;;;;;;;;;;7.20;99.90;;;;;;4984111;28;19930;-70
2022/12/30 11:35:47;;;;;;;;;;;7.10;99.90;;;;;;4983192;28;19929;-69
2022/12/30 11:38:36;;;;;;;;;;;7.10;99.90;;;;;;4985987;28;20017;-70
2022/12/30 11:41:18;;;;;;;;;;;7.20;99.90;;;;;;4979575;28;20389;-70
2022/12/30 11:43:44;;;;;;;;;;;7.30;99.90;;;;;;4982341;28;20409;-70
2022/12/30 11:46:11;;;;;;;;;;;7.20;99.90;;;;;;4983888;28;19994;-70
2022/12/30 11:48:56;;;;;;;;;;;7.30;99.90;;;;;;4983723;28;20365;-70
2022/12/30 11:51:34;;;;;;;;;;;7.40;99.90;;;;;;4979283;28;19968;-69
2022/12/30 11:54:02;;;;;;;;;;;7.40;99.90;;;;;;4985380;28;19929;-70
2022/12/30 11:56:30;;;;;;;;;;;7.40;99.90;;;;;;4981232;28;19980;-69
2022/12/30 11:58:59;;;;;;;;;;;7.40;99.90;;;;;;4984150;28;19945;-69
2022/12/30 12:01:25;;;;;;;;;;;7.40;99.90;;;;;;4982376;28;20333;-71
2022/12/30 12:03:56;;;;;;;;;;;7.50;99.90;;;;;;4984639;28;19937;-71
2022/12/30 12:06:22;;;;;;;;;;;7.60;99.90;;;;;;4982729;28;19926;-71
2022/12/30 12:09:07;;;;;;;;;;;7.50;99.90;;;;;;4984529;28;20293;-70
2022/12/30 12:11:36;;;;;;;;;;;7.50;99.90;;;;;;4981822;28;19922;-70
2022/12/30 12:14:15;;;;;;;;;;;7.70;99.90;;;;;;4983888;28;19921;-70
2022/12/30 12:16:49;;;;;;;;;;;7.70;99.90;;;;;;4981899;28;19996;-70
2022/12/30 12:19:24;;;;;;;;;;;7.80;99.90;;;;;;4978149;28;19926;-71
2022/12/30 12:21:52;;;;;;;;;;;7.80;99.90;;;;;;4979213;28;19969;-70
2022/12/30 12:24:38;;;;;;;;;;;7.80;99.90;;;;;;4992122;28;20285;-70
2022/12/30 12:27:05;;;;;;;;;;;7.90;99.90;;;;;;4983109;28;19922;-70
2022/12/30 12:29:32;;;;;;;;;;;7.90;99.90;;;;;;4983141;28;19922;-70
2022/12/30 12:31:58;;;;;;;;;;;7.90;99.90;;;;;;4984220;28;20005;-70
2022/12/30 12:34:30;;;;;;;;;;;8.00;99.90;;;;;;4982157;28;20029;-70
2022/12/30 12:36:55;;;;;;;;;;;8.00;99.90;;;;;;4982575;28;19922;-71
2022/12/30 12:39:56;;;;;;;;;;;8.10;99.90;;;;;;4982362;28;20005;-70
2022/12/30 12:42:53;;;;;;;;;;;8.10;99.90;;;;;;4906000;29;20264;-71
2022/12/30 12:45:19;;;;;;;;;;;8.00;99.90;;;;;;4962691;28;19933;-70
2022/12/30 12:48:11;;;;;;;;;;;8.30;99.90;;;;;;4980253;28;19985;-71
2022/12/30 12:50:36;;;;;;;;;;;8.10;99.90;;;;;;4972565;28;19945;-71
2022/12/30 12:53:28;;;;;;;;;;;8.40;99.90;;;;;;4983797;28;19930;-69
2022/12/30 12:55:54;;;;;;;;;;;8.20;99.90;;;;;;4949541;28;20289;-70
2022/12/30 12:58:29;;;;;;;;;;;8.30;99.90;;;;;;4983777;28;19928;-70
2022/12/30 13:01:01;;;;;;;;;;;8.40;99.90;;;;;;4982739;28;19953;-70
2022/12/30 13:03:36;;;;;;;;;;;8.40;99.90;;;;;;4981843;28;19922;-69
2022/12/30 13:06:14;;;;;;;;;;;8.40;99.90;;;;;;4983968;28;19921;-70
2022/12/30 13:08:43;;;;;;;;;;;8.40;99.90;;;;;;4976562;28;19979;-70
2022/12/30 13:11:16;;;;;;;;;;;8.40;99.90;;;;;;4984937;28;19922;-69
2022/12/30 13:14:01;;;;;;;;;;;8.40;99.90;;;;;;4977691;28;19988;-69
2022/12/30 13:16:32;;;;;;;;;;;8.40;99.90;;;;;;4981885;28;19922;-70
2022/12/30 13:19:00;;;;;;;;;;;8.50;99.90;;;;;;4982445;28;20648;-70
2022/12/30 13:21:26;;;;;;;;;;;8.30;99.90;;;;;;4979907;28;20297;-70
2022/12/30 13:23:54;;;;;;;;;;;8.20;99.90;;;;;;4983262;28;19929;-69
2022/12/30 13:26:23;;;;;;;;;;;8.30;99.90;;;;;;4980814;28;20004;-69
2022/12/30 13:28:54;;;;;;;;;;;8.20;99.90;;;;;;4982165;28;20010;-69
2022/12/30 13:31:22;;;;;;;;;;;8.20;99.90;;;;;;4982145;28;19922;-69
2022/12/30 13:33:57;;;;;;;;;;;8.10;99.90;;;;;;4982603;28;20004;-69
2022/12/30 13:36:41;;;;;;;;;;;8.10;99.90;;;;;;4979745;28;20266;-69
2022/12/30 13:39:10;;;;;;;;;;;8.00;99.90;;;;;;4977629;28;19929;-70
2022/12/30 13:41:35;;;;;;;;;;;8.10;99.90;;;;;;4979094;28;19929;-70
2022/12/30 13:44:02;;;;;;;;;;;8.00;99.90;;;;;;4983001;28;19922;-70
2022/12/30 13:46:30;;;;;;;;;;;8.00;99.90;;;;;;4980641;28;19922;-69
2022/12/30 13:48:56;;;;;;;;;;;8.60;99.90;;;;;;4980197;28;19922;-70
2022/12/30 13:51:22;;;;;;;;;;;8.00;99.90;;;;;;4981551;28;19930;-70
2022/12/30 13:53:49;;;;;;;;;;;8.00;99.90;;;;;;4981678;28;19984;-70
2022/12/30 13:56:19;;;;;;;;;;;8.00;99.90;;;;;;4981648;28;19922;-70
2022/12/30 13:58:48;;;;;;;;;;;7.90;99.90;;;;;;4982581;28;19921;-70
2022/12/30 14:01:19;;;;;;;;;;;8.10;99.90;;;;;;4976119;28;19945;-70
2022/12/30 14:04:11;;;;;;;;;;;7.90;99.90;;;;;;4980712;28;20364;-70
2022/12/30 14:06:42;;;;;;;;;;;7.90;99.90;;;;;;4978801;28;19929;-70
2022/12/30 14:09:21;;;;;;;;;;;7.90;99.90;;;;;;4981757;28;19932;-71
2022/12/30 14:11:59;;;;;;;;;;;7.90;99.90;;;;;;4981461;28;19921;-71
2022/12/30 14:14:25;;;;;;;;;;;8.10;99.90;;;;;;4976573;28;19969;-71
2022/12/30 14:16:55;;;;;;;;;;;8.00;99.90;;;;;;4986449;28;20011;-70
2022/12/30 14:19:29;;;;;;;;;;;8.00;99.90;;;;;;4984709;28;19985;-70
2022/12/30 14:21:55;;;;;;;;;;;8.20;99.90;;;;;;4987655;28;19922;-71
2022/12/30 14:24:30;;;;;;;;;;;8.10;99.90;;;;;;4982616;28;19922;-71
2022/12/30 14:26:55;;;;;;;;;;;8.10;99.90;;;;;;4984393;28;19922;-70
2022/12/30 14:29:39;;;;;;;;;;;8.20;99.90;;;;;;4988413;28;20022;-70
2022/12/30 14:32:06;;;;;;;;;;;8.10;99.90;;;;;;4985063;28;20021;-71
2022/12/30 14:34:36;;;;;;;;;;;8.20;99.90;;;;;;4986924;28;19965;-71
2022/12/30 14:37:06;;;;;;;;;;;8.30;99.90;;;;;;4983727;28;20315;-71
2022/12/30 14:39:32;;;;;;;;;;;8.30;99.90;;;;;;4984478;28;19961;-71
2022/12/30 14:41:59;;;;;;;;;;;8.30;99.90;;;;;;4983912;28;20338;-71
2022/12/30 14:44:26;;;;;;;;;;;8.30;99.90;;;;;;4986966;28;20024;-71
2022/12/30 14:47:00;;;;;;;;;;;8.30;99.90;;;;;;4983220;28;19980;-71
2022/12/30 14:49:36;;;;;;;;;;;8.30;99.90;;;;;;4979224;28;19922;-71
2022/12/30 14:52:04;;;;;;;;;;;8.40;99.90;;;;;;4984726;28;19925;-70
2022/12/30 14:54:33;;;;;;;;;;;8.30;99.90;;;;;;4984916;28;19921;-71
2022/12/30 14:57:02;;;;;;;;;;;8.30;99.90;;;;;;4984690;28;20019;-71
2022/12/30 14:59:28;;;;;;;;;;;8.20;99.90;;;;;;4983975;28;19922;-71
2022/12/30 15:02:11;;;;;;;;;;;8.20;99.90;;;;;;4985590;28;20012;-71
2022/12/30 15:04:37;;;;;;;;;;;8.20;99.90;;;;;;4985495;28;20409;-70
2022/12/30 15:07:02;;;;;;;;;;;8.30;99.90;;;;;;4984566;28;19922;-70
2022/12/30 15:09:28;;;;;;;;;;;8.20;99.90;;;;;;4984116;28;20297;-70
2022/12/30 15:11:57;;;;;;;;;;;8.10;99.90;;;;;;4985849;28;19968;-70
2022/12/30 15:14:23;;;;;;;;;;;8.00;99.90;;;;;;4983243;28;19929;-70
2022/12/30 15:17:04;;;;;;;;;;;8.00;99.90;;;;;;4986856;28;19947;-70
2022/12/30 15:19:30;;;;;;;;;;;8.50;99.90;;;;;;4983289;28;19925;-70
2022/12/30 15:21:55;;;;;;;;;;;8.00;99.90;;;;;;4983490;28;19918;-70
2022/12/30 15:24:21;;;;;;;;;;;8.20;99.90;;;;;;4986339;28;20345;-70
2022/12/30 15:26:51;;;;;;;;;;;8.00;99.90;;;;;;4986673;28;19922;-70
2022/12/30 15:29:22;;;;;;;;;;;9.20;99.90;;;;;;4979447;28;19926;-71
2022/12/30 15:31:49;;;;;;;;;;;7.80;99.90;;;;;;4984778;28;19928;-70
2022/12/30 15:34:17;;;;;;;;;;;7.90;99.90;;;;;;4983110;28;20160;-71
2022/12/30 15:36:42;;;;;;;;;;;7.90;99.90;;;;;;4978464;28;20302;-70
2022/12/30 15:39:11;;;;;;;;;;;7.90;99.90;;;;;;4985009;28;19922;-70
2022/12/30 15:41:37;;;;;;;;;;;7.90;99.90;;;;;;4981847;28;20358;-70